createdAt,value
2022-11-05T00:00:44.338Z,1008.96
2022-11-05T00:01:44.408Z,1008.99
2022-11-05T00:02:44.335Z,1008.97
2022-11-05T00:03:44.381Z,1008.99
2022-11-05T00:04:44.298Z,1008.99
2022-11-05T00:05:44.288Z,1009.00
2022-11-05T00:06:44.282Z,1009.05
2022-11-05T00:07:44.280Z,1009.00
2022-11-05T00:08:44.256Z,1009.05
2022-11-05T00:09:44.237Z,1009.02
2022-11-05T00:10:44.231Z,1009.04
2022-11-05T00:11:44.219Z,1009.03
2022-11-05T00:12:44.249Z,1009.03
2022-11-05T00:13:44.196Z,1009.06
2022-11-05T00:14:44.184Z,1009.05
2022-11-05T00:15:44.177Z,1009.04
2022-11-05T00:16:44.160Z,1009.01
2022-11-05T00:17:44.176Z,1009.04
2022-11-05T00:18:44.137Z,1009.05
2022-11-05T00:19:44.135Z,1009.04
2022-11-05T00:20:44.114Z,1009.05
2022-11-05T00:21:44.108Z,1009.04
2022-11-05T00:22:44.105Z,1009.07
2022-11-05T00:23:44.081Z,1009.05
2022-11-05T00:24:44.069Z,1009.06
2022-11-05T00:25:44.060Z,1009.07
2022-11-05T00:26:44.060Z,1009.05
2022-11-05T00:27:44.053Z,1009.06
2022-11-05T00:28:44.127Z,1009.04
2022-11-05T00:29:44.020Z,1009.05
2022-11-05T00:30:44.003Z,1009.05
2022-11-05T00:31:43.993Z,1009.09
2022-11-05T00:32:43.992Z,1009.12
2022-11-05T00:33:43.969Z,1009.18
2022-11-05T00:34:43.966Z,1009.17
2022-11-05T00:35:43.946Z,1009.22
2022-11-05T00:36:43.939Z,1009.23
2022-11-05T00:37:49.615Z,1009.25
2022-11-05T00:38:44.911Z,1009.25
2022-11-05T00:39:43.909Z,1009.24
2022-11-05T00:40:43.898Z,1009.25
2022-11-05T00:41:43.881Z,1009.29
2022-11-05T00:42:43.886Z,1009.29
2022-11-05T00:43:43.867Z,1009.34
2022-11-05T00:44:43.873Z,1009.32
2022-11-05T00:45:43.834Z,1009.41
2022-11-05T00:46:43.824Z,1009.41
2022-11-05T00:47:43.811Z,1009.43
2022-11-05T00:48:43.822Z,1009.45
2022-11-05T00:49:43.791Z,1009.46
2022-11-05T00:50:43.778Z,1009.43
2022-11-05T00:51:43.775Z,1009.52
2022-11-05T00:52:43.767Z,1009.53
2022-11-05T00:53:43.766Z,1009.53
2022-11-05T00:54:43.733Z,1009.52
2022-11-05T00:55:43.721Z,1009.55
2022-11-05T00:56:43.716Z,1009.59
2022-11-05T00:57:43.711Z,1009.60
2022-11-05T00:58:43.724Z,1009.65
2022-11-05T00:59:43.677Z,1009.66
2022-11-05T01:00:43.784Z,1009.69
2022-11-05T01:01:43.796Z,1009.68
2022-11-05T01:02:43.810Z,1009.70
2022-11-05T01:03:47.495Z,1009.69
2022-11-05T01:04:44.626Z,1009.72
2022-11-05T01:05:43.610Z,1009.73
2022-11-05T01:06:43.624Z,1009.73
2022-11-05T01:07:43.593Z,1009.69
2022-11-05T01:08:43.588Z,1009.69
2022-11-05T01:09:43.566Z,1009.69
2022-11-05T01:10:43.555Z,1009.68
2022-11-05T01:11:43.550Z,1009.71
2022-11-05T01:12:43.530Z,1009.70
2022-11-05T01:13:43.542Z,1009.71
2022-11-05T01:14:43.506Z,1009.73
2022-11-05T01:15:43.500Z,1009.75
2022-11-05T01:16:43.507Z,1009.72
2022-11-05T01:17:43.495Z,1009.72
2022-11-05T01:18:43.484Z,1009.70
2022-11-05T01:19:43.474Z,1009.74
2022-11-05T01:20:43.439Z,1009.75
2022-11-05T01:21:43.441Z,1009.73
2022-11-05T01:22:43.421Z,1009.73
2022-11-05T01:23:43.444Z,1009.76
2022-11-05T01:24:43.403Z,1009.76
2022-11-05T01:25:43.391Z,1009.75
2022-11-05T01:26:43.375Z,1009.76
2022-11-05T01:27:43.369Z,1009.76
2022-11-05T01:28:43.468Z,1009.75
2022-11-05T01:29:43.339Z,1009.74
2022-11-05T01:30:43.334Z,1009.75
2022-11-05T01:31:43.324Z,1009.74
2022-11-05T01:32:43.331Z,1009.75
2022-11-05T01:33:43.319Z,1009.77
2022-11-05T01:34:43.287Z,1009.75
2022-11-05T01:35:43.280Z,1009.81
2022-11-05T01:36:43.262Z,1009.86
2022-11-05T01:37:43.249Z,1009.88
2022-11-05T01:38:43.244Z,1009.92
2022-11-05T01:39:43.247Z,1009.91
2022-11-05T01:40:43.218Z,1009.96
2022-11-05T01:41:43.211Z,1009.98
2022-11-05T01:42:43.199Z,1009.98
2022-11-05T01:43:43.202Z,1010.04
2022-11-05T01:44:43.183Z,1010.05
2022-11-05T01:45:43.168Z,1010.01
2022-11-05T01:46:43.156Z,1010.02
2022-11-05T01:47:43.140Z,1010.06
2022-11-05T01:48:43.154Z,1010.05
2022-11-05T01:49:43.137Z,1010.06
2022-11-05T01:50:43.110Z,1010.07
2022-11-05T01:51:43.105Z,1010.01
2022-11-05T01:52:43.089Z,1010.06
2022-11-05T01:53:43.076Z,1010.02
2022-11-05T01:54:43.075Z,1010.04
2022-11-05T01:55:43.056Z,1010.04
2022-11-05T01:56:43.041Z,1010.04
2022-11-05T01:57:43.041Z,1010.00
2022-11-05T01:58:43.023Z,1010.01
2022-11-05T01:59:43.027Z,1010.03
2022-11-05T02:00:43.007Z,1010.02
2022-11-05T02:01:43.138Z,1010.08
2022-11-05T02:02:43.200Z,1010.08
2022-11-05T02:03:42.957Z,1010.11
2022-11-05T02:04:42.987Z,1010.09
2022-11-05T02:05:42.943Z,1010.11
2022-11-05T02:06:42.923Z,1010.11
2022-11-05T02:07:42.911Z,1010.12
2022-11-05T02:08:42.921Z,1010.10
2022-11-05T02:09:42.949Z,1010.13
2022-11-05T02:10:42.880Z,1010.13
2022-11-05T02:11:42.893Z,1010.13
2022-11-05T02:12:42.865Z,1010.15
2022-11-05T02:13:42.848Z,1010.16
2022-11-05T02:14:42.839Z,1010.15
2022-11-05T02:15:42.854Z,1010.16
2022-11-05T02:16:42.809Z,1010.14
2022-11-05T02:17:42.801Z,1010.19
2022-11-05T02:18:42.788Z,1010.19
2022-11-05T02:19:42.789Z,1010.19
2022-11-05T02:20:44.811Z,1010.21
2022-11-05T02:21:43.754Z,1010.22
2022-11-05T02:22:42.743Z,1010.25
2022-11-05T02:23:42.741Z,1010.25
2022-11-05T02:24:42.731Z,1010.26
2022-11-05T02:25:42.734Z,1010.27
2022-11-05T02:26:42.703Z,1010.24
2022-11-05T02:27:42.687Z,1010.33
2022-11-05T02:28:42.682Z,1010.29
2022-11-05T02:29:42.663Z,1010.31
2022-11-05T02:30:42.673Z,1010.34
2022-11-05T02:31:42.651Z,1010.33
2022-11-05T02:32:42.628Z,1010.30
2022-11-05T02:33:42.622Z,1010.26
2022-11-05T02:34:42.611Z,1010.27
2022-11-05T02:35:42.613Z,1010.28
2022-11-05T02:36:42.607Z,1010.31
2022-11-05T02:37:42.579Z,1010.29
2022-11-05T02:38:42.572Z,1010.34
2022-11-05T02:39:42.557Z,1010.35
2022-11-05T02:40:42.580Z,1010.38
2022-11-05T02:41:42.527Z,1010.35
2022-11-05T02:42:42.526Z,1010.33
2022-11-05T02:43:42.526Z,1010.37
2022-11-05T02:44:42.505Z,1010.33
2022-11-05T02:45:42.484Z,1010.32
2022-11-05T02:46:42.484Z,1010.36
2022-11-05T02:47:42.468Z,1010.33
2022-11-05T02:48:42.456Z,1010.30
2022-11-05T02:49:42.440Z,1010.35
2022-11-05T02:50:42.432Z,1010.34
2022-11-05T02:51:42.448Z,1010.34
2022-11-05T02:52:42.510Z,1010.33
2022-11-05T02:53:42.395Z,1010.35
2022-11-05T02:54:42.382Z,1010.38
2022-11-05T02:55:42.368Z,1010.34
2022-11-05T02:56:42.387Z,1010.35
2022-11-05T02:57:42.346Z,1010.39
2022-11-05T02:58:42.349Z,1010.32
2022-11-05T02:59:42.338Z,1010.34
2022-11-05T03:00:42.332Z,1010.36
2022-11-05T03:01:42.474Z,1010.36
2022-11-05T03:02:42.461Z,1010.33
2022-11-05T03:03:42.278Z,1010.31
2022-11-05T03:04:42.285Z,1010.35
2022-11-05T03:05:42.263Z,1010.30
2022-11-05T03:06:42.329Z,1010.31
2022-11-05T03:07:42.241Z,1010.28
2022-11-05T03:08:42.253Z,1010.33
2022-11-05T03:09:42.219Z,1010.31
2022-11-05T03:10:42.207Z,1010.34
2022-11-05T03:11:42.221Z,1010.31
2022-11-05T03:12:42.180Z,1010.35
2022-11-05T03:13:42.168Z,1010.33
2022-11-05T03:14:42.167Z,1010.32
2022-11-05T03:15:42.161Z,1010.30
2022-11-05T03:16:42.154Z,1010.35
2022-11-05T03:17:42.120Z,1010.37
2022-11-05T03:18:42.110Z,1010.36
2022-11-05T03:19:42.106Z,1010.39
2022-11-05T03:20:42.088Z,1010.38
2022-11-05T03:21:42.114Z,1010.42
2022-11-05T03:22:42.072Z,1010.40
2022-11-05T03:23:42.054Z,1010.41
2022-11-05T03:24:42.072Z,1010.42
2022-11-05T03:25:42.039Z,1010.42
2022-11-05T03:26:42.035Z,1010.40
2022-11-05T03:27:42.016Z,1010.39
2022-11-05T03:28:42.006Z,1010.41
2022-11-05T03:29:41.990Z,1010.38
2022-11-05T03:30:41.995Z,1010.41
2022-11-05T03:31:41.976Z,1010.40
2022-11-05T03:32:41.994Z,1010.37
2022-11-05T03:33:41.946Z,1010.41
2022-11-05T03:34:41.984Z,1010.42
2022-11-05T03:35:41.923Z,1010.43
2022-11-05T03:36:41.935Z,1010.37
2022-11-05T03:37:41.904Z,1010.43
2022-11-05T03:38:41.890Z,1010.44
2022-11-05T03:39:41.876Z,1010.44
2022-11-05T03:40:41.903Z,1010.42
2022-11-05T03:41:41.875Z,1010.42
2022-11-05T03:42:41.842Z,1010.43
2022-11-05T03:43:41.838Z,1010.46
2022-11-05T03:44:41.825Z,1010.45
2022-11-05T03:45:41.814Z,1010.46
2022-11-05T03:46:41.818Z,1010.50
2022-11-05T03:47:41.793Z,1010.50
2022-11-05T03:48:41.847Z,1010.56
2022-11-05T03:49:41.761Z,1010.57
2022-11-05T03:50:41.863Z,1010.60
2022-11-05T03:51:41.752Z,1010.60
2022-11-05T03:52:41.729Z,1010.59
2022-11-05T03:53:41.720Z,1010.64
2022-11-05T03:54:41.714Z,1010.61
2022-11-05T03:55:41.692Z,1010.59
2022-11-05T03:56:41.723Z,1010.59
2022-11-05T03:57:41.681Z,1010.63
2022-11-05T03:58:41.669Z,1010.65
2022-11-05T03:59:41.645Z,1010.65
2022-11-05T04:00:41.648Z,1010.67
2022-11-05T04:01:41.818Z,1010.67
2022-11-05T04:02:41.789Z,1010.69
2022-11-05T04:03:41.602Z,1010.70
2022-11-05T04:04:41.607Z,1010.76
2022-11-05T04:05:41.585Z,1010.76
2022-11-05T04:06:41.571Z,1010.76
2022-11-05T04:07:41.579Z,1010.75
2022-11-05T04:08:41.545Z,1010.77
2022-11-05T04:09:41.538Z,1010.78
2022-11-05T04:10:41.531Z,1010.80
2022-11-05T04:11:41.514Z,1010.78
2022-11-05T04:12:41.550Z,1010.81
2022-11-05T04:13:41.490Z,1010.82
2022-11-05T04:14:41.486Z,1010.84
2022-11-05T04:15:41.474Z,1010.82
2022-11-05T04:16:41.469Z,1010.82
2022-11-05T04:17:41.465Z,1010.82
2022-11-05T04:18:41.444Z,1010.85
2022-11-05T04:19:41.421Z,1010.91
2022-11-05T04:20:41.421Z,1010.92
2022-11-05T04:21:41.402Z,1010.89
2022-11-05T04:22:41.411Z,1010.87
2022-11-05T04:23:41.379Z,1010.88
2022-11-05T04:24:41.371Z,1010.86
2022-11-05T04:25:41.359Z,1010.86
2022-11-05T04:26:41.356Z,1010.88
2022-11-05T04:27:41.359Z,1010.87
2022-11-05T04:28:41.355Z,1010.91
2022-11-05T04:29:41.316Z,1010.95
2022-11-05T04:30:41.300Z,1010.94
2022-11-05T04:31:41.305Z,1010.96
2022-11-05T04:32:41.303Z,1010.99
2022-11-05T04:33:41.271Z,1010.97
2022-11-05T04:34:41.262Z,1011.00
2022-11-05T04:35:41.240Z,1011.01
2022-11-05T04:36:41.230Z,1011.01
2022-11-05T04:37:41.239Z,1011.01
2022-11-05T04:38:41.225Z,1011.01
2022-11-05T04:39:41.205Z,1010.99
2022-11-05T04:40:41.192Z,1010.98
2022-11-05T04:41:41.180Z,1011.00
2022-11-05T04:42:41.179Z,1011.01
2022-11-05T04:43:41.154Z,1011.03
2022-11-05T04:44:41.164Z,1011.04
2022-11-05T04:45:41.134Z,1011.04
2022-11-05T04:46:41.146Z,1011.04
2022-11-05T04:47:41.118Z,1011.01
2022-11-05T04:48:41.094Z,1011.01
2022-11-05T04:49:41.087Z,1010.99
2022-11-05T04:50:41.092Z,1010.98
2022-11-05T04:51:41.082Z,1010.99
2022-11-05T04:52:41.066Z,1010.97
2022-11-05T04:53:41.047Z,1011.00
2022-11-05T04:54:41.028Z,1010.97
2022-11-05T04:55:41.018Z,1010.95
2022-11-05T04:56:41.009Z,1010.94
2022-11-05T04:57:41.021Z,1010.92
2022-11-05T04:58:40.988Z,1010.93
2022-11-05T04:59:40.968Z,1010.92
2022-11-05T05:00:41.216Z,1010.91
2022-11-05T05:01:41.184Z,1010.92
2022-11-05T05:02:40.963Z,1010.91
2022-11-05T05:03:40.936Z,1010.92
2022-11-05T05:04:40.924Z,1010.93
2022-11-05T05:05:40.912Z,1010.88
2022-11-05T05:06:40.892Z,1010.89
2022-11-05T05:07:40.893Z,1010.91
2022-11-05T05:08:40.872Z,1010.88
2022-11-05T05:09:40.869Z,1010.96
2022-11-05T05:10:40.863Z,1010.96
2022-11-05T05:11:40.841Z,1010.92
2022-11-05T05:12:40.856Z,1010.98
2022-11-05T05:13:40.811Z,1010.97
2022-11-05T05:14:40.808Z,1010.97
2022-11-05T05:15:40.788Z,1011.01
2022-11-05T05:16:40.804Z,1011.04
2022-11-05T05:17:40.785Z,1011.08
2022-11-05T05:18:45.929Z,1011.10
2022-11-05T05:19:41.750Z,1011.13
2022-11-05T05:20:40.740Z,1011.12
2022-11-05T05:21:40.734Z,1011.08
2022-11-05T05:22:40.731Z,1011.09
2022-11-05T05:23:40.704Z,1011.13
2022-11-05T05:24:40.690Z,1011.11
2022-11-05T05:25:40.681Z,1011.16
2022-11-05T05:26:40.678Z,1011.17
2022-11-05T05:27:40.674Z,1011.14
2022-11-05T05:28:40.652Z,1011.19
2022-11-05T05:29:40.631Z,1011.17
2022-11-05T05:30:40.619Z,1011.22
2022-11-05T05:31:40.640Z,1011.19
2022-11-05T05:32:40.641Z,1011.22
2022-11-05T05:33:40.644Z,1011.22
2022-11-05T05:34:40.603Z,1011.22
2022-11-05T05:35:40.562Z,1011.21
2022-11-05T05:36:40.563Z,1011.19
2022-11-05T05:37:40.566Z,1011.19
2022-11-05T05:38:40.534Z,1011.19
2022-11-05T05:39:40.527Z,1011.22
2022-11-05T05:40:40.524Z,1011.20
2022-11-05T05:41:40.512Z,1011.23
2022-11-05T05:42:43.347Z,1011.20
2022-11-05T05:43:40.473Z,1011.25
2022-11-05T05:44:40.472Z,1011.26
2022-11-05T05:45:40.459Z,1011.29
2022-11-05T05:46:40.442Z,1011.27
2022-11-05T05:47:40.443Z,1011.26
2022-11-05T05:48:40.448Z,1011.26
2022-11-05T05:49:40.412Z,1011.31
2022-11-05T05:50:40.408Z,1011.28
2022-11-05T05:51:40.390Z,1011.31
2022-11-05T05:52:40.395Z,1011.32
2022-11-05T05:53:40.362Z,1011.37
2022-11-05T05:54:42.898Z,1011.38
2022-11-05T05:55:40.341Z,1011.43
2022-11-05T05:56:40.336Z,1011.42
2022-11-05T05:57:40.338Z,1011.43
2022-11-05T05:58:40.308Z,1011.45
2022-11-05T05:59:40.302Z,1011.47
2022-11-05T06:00:40.309Z,1011.46
2022-11-05T06:01:40.373Z,1011.44
2022-11-05T06:02:40.459Z,1011.47
2022-11-05T06:03:40.255Z,1011.51
2022-11-05T06:04:40.351Z,1011.53
2022-11-05T06:05:40.226Z,1011.57
2022-11-05T06:06:40.217Z,1011.56
2022-11-05T06:07:40.227Z,1011.57
2022-11-05T06:08:40.202Z,1011.58
2022-11-05T06:09:40.188Z,1011.60
2022-11-05T06:10:40.302Z,1011.60
2022-11-05T06:11:40.177Z,1011.65
2022-11-05T06:12:40.168Z,1011.62
2022-11-05T06:13:40.138Z,1011.61
2022-11-05T06:14:40.134Z,1011.66
2022-11-05T06:15:40.120Z,1011.65
2022-11-05T06:16:40.113Z,1011.66
2022-11-05T06:17:40.107Z,1011.65
2022-11-05T06:18:40.113Z,1011.67
2022-11-05T06:19:40.086Z,1011.66
2022-11-05T06:20:40.169Z,1011.69
2022-11-05T06:21:40.060Z,1011.67
2022-11-05T06:22:40.062Z,1011.73
2022-11-05T06:23:40.040Z,1011.67
2022-11-05T06:24:40.017Z,1011.65
2022-11-05T06:25:41.328Z,1011.67
2022-11-05T06:26:39.998Z,1011.67
2022-11-05T06:27:39.987Z,1011.67
2022-11-05T06:28:39.990Z,1011.70
2022-11-05T06:29:39.981Z,1011.67
2022-11-05T06:30:39.946Z,1011.67
2022-11-05T06:31:39.949Z,1011.69
2022-11-05T06:32:39.934Z,1011.66
2022-11-05T06:33:39.931Z,1011.68
2022-11-05T06:34:39.899Z,1011.70
2022-11-05T06:35:39.887Z,1011.67
2022-11-05T06:36:39.908Z,1011.67
2022-11-05T06:37:39.871Z,1011.69
2022-11-05T06:38:39.890Z,1011.68
2022-11-05T06:39:39.850Z,1011.68
2022-11-05T06:40:39.840Z,1011.69
2022-11-05T06:42:03.910Z,1011.74
2022-11-05T06:42:40.818Z,1011.71
2022-11-05T06:43:39.815Z,1011.75
2022-11-05T06:44:39.795Z,1011.75
2022-11-05T06:45:39.776Z,1011.76
2022-11-05T06:46:43.256Z,1011.79
2022-11-05T06:47:40.766Z,1011.82
2022-11-05T06:48:39.760Z,1011.79
2022-11-05T06:49:39.760Z,1011.83
2022-11-05T06:50:39.721Z,1011.86
2022-11-05T06:51:39.728Z,1011.88
2022-11-05T06:52:41.229Z,1011.92
2022-11-05T06:53:39.706Z,1011.94
2022-11-05T06:54:39.687Z,1011.92
2022-11-05T06:55:39.674Z,1011.95
2022-11-05T06:56:39.657Z,1011.95
2022-11-05T06:57:39.658Z,1011.91
2022-11-05T06:58:39.650Z,1011.94
2022-11-05T06:59:39.634Z,1012.00
2022-11-05T07:00:39.659Z,1012.02
2022-11-05T07:01:39.767Z,1011.96
2022-11-05T07:02:39.592Z,1012.00
2022-11-05T07:03:39.599Z,1012.03
2022-11-05T07:04:39.570Z,1012.05
2022-11-05T07:05:39.559Z,1012.09
2022-11-05T07:06:39.547Z,1012.10
2022-11-05T07:07:39.529Z,1012.14
2022-11-05T07:08:39.568Z,1012.15
2022-11-05T07:09:39.514Z,1012.18
2022-11-05T07:10:39.509Z,1012.16
2022-11-05T07:11:39.485Z,1012.20
2022-11-05T07:12:39.473Z,1012.20
2022-11-05T07:13:39.487Z,1012.23
2022-11-05T07:14:39.459Z,1012.25
2022-11-05T07:15:39.447Z,1012.23
2022-11-05T07:16:39.428Z,1012.23
2022-11-05T07:17:39.442Z,1012.24
2022-11-05T07:18:39.423Z,1012.25
2022-11-05T07:19:39.395Z,1012.26
2022-11-05T07:20:39.392Z,1012.27
2022-11-05T07:21:39.385Z,1012.25
2022-11-05T07:22:39.373Z,1012.31
2022-11-05T07:23:39.367Z,1012.31
2022-11-05T07:24:39.366Z,1012.26
2022-11-05T07:25:39.329Z,1012.29
2022-11-05T07:26:39.325Z,1012.29
2022-11-05T07:27:39.310Z,1012.34
2022-11-05T07:28:39.318Z,1012.24
2022-11-05T07:29:39.291Z,1012.31
2022-11-05T07:30:39.282Z,1012.26
2022-11-05T07:31:39.270Z,1012.27
2022-11-05T07:32:39.264Z,1012.27
2022-11-05T07:33:39.274Z,1012.30
2022-11-05T07:34:39.234Z,1012.33
2022-11-05T07:35:39.229Z,1012.33
2022-11-05T07:36:39.214Z,1012.31
2022-11-05T07:37:39.194Z,1012.32
2022-11-05T07:38:39.205Z,1012.38
2022-11-05T07:39:39.174Z,1012.34
2022-11-05T07:40:39.478Z,1012.32
2022-11-05T07:41:39.158Z,1012.33
2022-11-05T07:42:39.229Z,1012.31
2022-11-05T07:43:39.154Z,1012.28
2022-11-05T07:44:39.131Z,1012.34
2022-11-05T07:45:39.111Z,1012.37
2022-11-05T07:46:39.091Z,1012.36
2022-11-05T07:47:39.092Z,1012.43
2022-11-05T07:48:39.086Z,1012.41
2022-11-05T07:49:39.064Z,1012.42
2022-11-05T07:50:39.055Z,1012.42
2022-11-05T07:51:39.050Z,1012.43
2022-11-05T07:52:39.024Z,1012.39
2022-11-05T07:53:44.080Z,1012.40
2022-11-05T07:54:40.013Z,1012.43
2022-11-05T07:55:38.991Z,1012.40
2022-11-05T07:56:39.006Z,1012.47
2022-11-05T07:57:38.978Z,1012.48
2022-11-05T07:58:38.978Z,1012.50
2022-11-05T07:59:38.955Z,1012.50
2022-11-05T08:00:39.180Z,1012.49
2022-11-05T08:01:39.278Z,1012.51
2022-11-05T08:02:39.228Z,1012.46
2022-11-05T08:03:39.049Z,1012.53
2022-11-05T08:04:38.934Z,1012.54
2022-11-05T08:05:38.907Z,1012.59
2022-11-05T08:06:38.954Z,1012.58
2022-11-05T08:07:38.855Z,1012.58
2022-11-05T08:08:38.850Z,1012.57
2022-11-05T08:09:38.855Z,1012.58
2022-11-05T08:10:38.823Z,1012.56
2022-11-05T08:11:38.818Z,1012.61
2022-11-05T08:12:38.839Z,1012.61
2022-11-05T08:13:38.797Z,1012.66
2022-11-05T08:14:38.794Z,1012.66
2022-11-05T08:15:38.774Z,1012.70
2022-11-05T08:16:38.754Z,1012.70
2022-11-05T08:17:38.742Z,1012.70
2022-11-05T08:18:38.813Z,1012.70
2022-11-05T08:19:38.758Z,1012.68
2022-11-05T08:20:38.711Z,1012.66
2022-11-05T08:21:38.708Z,1012.68
2022-11-05T08:22:38.691Z,1012.65
2022-11-05T08:23:38.674Z,1012.68
2022-11-05T08:24:38.861Z,1012.72
2022-11-05T08:25:38.652Z,1012.71
2022-11-05T08:26:38.646Z,1012.69
2022-11-05T08:27:38.652Z,1012.74
2022-11-05T08:28:38.752Z,1012.71
2022-11-05T08:29:38.617Z,1012.74
2022-11-05T08:30:38.601Z,1012.74
2022-11-05T08:31:38.596Z,1012.75
2022-11-05T08:32:38.579Z,1012.78
2022-11-05T08:33:38.571Z,1012.78
2022-11-05T08:34:38.578Z,1012.74
2022-11-05T08:35:38.555Z,1012.82
2022-11-05T08:36:38.533Z,1012.78
2022-11-05T08:37:38.516Z,1012.75
2022-11-05T08:38:38.514Z,1012.76
2022-11-05T08:39:38.508Z,1012.79
2022-11-05T08:40:38.502Z,1012.78
2022-11-05T08:41:38.470Z,1012.79
2022-11-05T08:42:38.464Z,1012.81
2022-11-05T08:43:38.449Z,1012.82
2022-11-05T08:44:38.586Z,1012.78
2022-11-05T08:45:38.682Z,1012.83
2022-11-05T08:46:41.590Z,1012.82
2022-11-05T08:47:38.408Z,1012.81
2022-11-05T08:48:38.396Z,1012.84
2022-11-05T08:49:38.407Z,1012.80
2022-11-05T08:50:38.381Z,1012.83
2022-11-05T08:51:38.365Z,1012.79
2022-11-05T08:52:38.354Z,1012.80
2022-11-05T08:53:38.353Z,1012.85
2022-11-05T08:54:38.324Z,1012.85
2022-11-05T08:55:38.329Z,1012.85
2022-11-05T08:56:38.321Z,1012.85
2022-11-05T08:57:38.296Z,1012.88
2022-11-05T08:58:38.279Z,1012.90
2022-11-05T08:59:38.331Z,1012.94
2022-11-05T09:00:38.290Z,1012.88
2022-11-05T09:01:38.428Z,1012.87
2022-11-05T09:02:38.320Z,1012.88
2022-11-05T09:03:38.221Z,1012.83
2022-11-05T09:04:38.215Z,1012.84
2022-11-05T09:05:38.261Z,1012.87
2022-11-05T09:06:38.187Z,1012.87
2022-11-05T09:07:38.182Z,1012.89
2022-11-05T09:08:38.166Z,1012.92
2022-11-05T09:09:38.155Z,1012.92
2022-11-05T09:10:38.171Z,1012.92
2022-11-05T09:12:10.072Z,1012.90
2022-11-05T09:12:39.125Z,1012.94
2022-11-05T09:13:38.121Z,1012.92
2022-11-05T09:14:38.108Z,1012.96
2022-11-05T09:15:38.101Z,1012.88
2022-11-05T09:16:38.101Z,1012.94
2022-11-05T09:17:38.071Z,1012.93
2022-11-05T09:18:38.067Z,1012.94
2022-11-05T09:19:39.959Z,1012.92
2022-11-05T09:20:38.053Z,1012.92
2022-11-05T09:21:38.031Z,1012.91
2022-11-05T09:22:43.051Z,1012.88
2022-11-05T09:23:39.024Z,1012.91
2022-11-05T09:24:37.999Z,1012.93
2022-11-05T09:25:38.027Z,1012.89
2022-11-05T09:26:37.969Z,1012.93
2022-11-05T09:27:37.953Z,1012.90
2022-11-05T09:28:37.938Z,1012.91
2022-11-05T09:29:37.936Z,1012.93
2022-11-05T09:30:37.920Z,1012.91
2022-11-05T09:31:37.927Z,1012.93
2022-11-05T09:32:37.921Z,1012.88
2022-11-05T09:33:37.887Z,1012.88
2022-11-05T09:34:37.880Z,1012.86
2022-11-05T09:35:37.877Z,1012.87
2022-11-05T09:36:37.860Z,1012.88
2022-11-05T09:37:37.916Z,1012.91
2022-11-05T09:38:37.838Z,1012.93
2022-11-05T09:39:37.836Z,1012.93
2022-11-05T09:40:37.806Z,1012.88
2022-11-05T09:41:37.816Z,1012.93
2022-11-05T09:42:37.801Z,1012.90
2022-11-05T09:43:37.779Z,1012.86
2022-11-05T09:44:37.771Z,1012.91
2022-11-05T09:45:37.752Z,1012.90
2022-11-05T09:46:37.759Z,1012.92
2022-11-05T09:47:37.749Z,1012.86
2022-11-05T09:48:37.737Z,1012.91
2022-11-05T09:49:37.708Z,1012.93
2022-11-05T09:50:37.691Z,1012.96
2022-11-05T09:51:37.706Z,1012.91
2022-11-05T09:52:37.676Z,1012.94
2022-11-05T09:53:37.671Z,1012.95
2022-11-05T09:54:37.648Z,1012.96
2022-11-05T09:55:37.645Z,1012.94
2022-11-05T09:56:37.641Z,1013.00
2022-11-05T09:57:37.628Z,1013.01
2022-11-05T09:58:37.606Z,1012.99
2022-11-05T09:59:37.593Z,1013.00
2022-11-05T10:00:37.587Z,1013.01
2022-11-05T10:01:37.855Z,1013.01
2022-11-05T10:02:37.736Z,1013.00
2022-11-05T10:03:37.563Z,1013.00
2022-11-05T10:04:37.718Z,1012.96
2022-11-05T10:05:37.626Z,1012.98
2022-11-05T10:06:37.535Z,1012.93
2022-11-05T10:07:37.508Z,1012.98
2022-11-05T10:08:37.495Z,1012.99
2022-11-05T10:09:37.494Z,1012.97
2022-11-05T10:10:40.920Z,1012.95
2022-11-05T10:11:37.475Z,1012.99
2022-11-05T10:12:37.457Z,1012.96
2022-11-05T10:13:37.433Z,1012.99
2022-11-05T10:14:37.440Z,1013.02
2022-11-05T10:15:37.419Z,1012.99
2022-11-05T10:16:37.462Z,1012.97
2022-11-05T10:17:39.213Z,1013.01
2022-11-05T10:18:37.384Z,1012.94
2022-11-05T10:19:37.368Z,1013.01
2022-11-05T10:20:37.485Z,1012.95
2022-11-05T10:22:04.923Z,1012.99
2022-11-05T10:22:38.335Z,1012.96
2022-11-05T10:23:37.325Z,1012.99
2022-11-05T10:24:37.314Z,1012.96
2022-11-05T10:25:37.308Z,1012.99
2022-11-05T10:26:37.315Z,1012.97
2022-11-05T10:27:37.280Z,1013.00
2022-11-05T10:28:37.275Z,1013.01
2022-11-05T10:29:37.268Z,1012.97
2022-11-05T10:30:37.245Z,1012.97
2022-11-05T10:31:37.249Z,1013.02
2022-11-05T10:32:37.232Z,1013.00
2022-11-05T10:33:37.211Z,1012.99
2022-11-05T10:34:37.198Z,1013.00
2022-11-05T10:35:37.196Z,1013.01
2022-11-05T10:36:37.306Z,1013.01
2022-11-05T10:37:40.806Z,1013.10
2022-11-05T10:38:37.154Z,1013.10
2022-11-05T10:39:37.146Z,1013.12
2022-11-05T10:40:37.161Z,1013.19
2022-11-05T10:41:37.121Z,1013.17
2022-11-05T10:42:37.135Z,1013.20
2022-11-05T10:43:37.102Z,1013.16
2022-11-05T10:44:37.087Z,1013.15
2022-11-05T10:45:37.081Z,1013.21
2022-11-05T10:46:37.078Z,1013.17
2022-11-05T10:47:37.078Z,1013.17
2022-11-05T10:48:43.304Z,1013.16
2022-11-05T10:49:38.041Z,1013.13
2022-11-05T10:50:37.041Z,1013.13
2022-11-05T10:51:37.013Z,1013.11
2022-11-05T10:52:37.039Z,1013.19
2022-11-05T10:53:36.990Z,1013.19
2022-11-05T10:54:36.977Z,1013.20
2022-11-05T10:55:36.973Z,1013.21
2022-11-05T10:56:36.961Z,1013.23
2022-11-05T10:57:36.972Z,1013.23
2022-11-05T10:58:36.930Z,1013.22
2022-11-05T10:59:36.924Z,1013.27
2022-11-05T11:00:36.916Z,1013.18
2022-11-05T11:01:37.012Z,1013.26
2022-11-05T11:02:36.947Z,1013.26
2022-11-05T11:03:36.888Z,1013.24
2022-11-05T11:04:38.246Z,1013.20
2022-11-05T11:05:36.861Z,1013.18
2022-11-05T11:06:36.841Z,1013.19
2022-11-05T11:07:36.848Z,1013.19
2022-11-05T11:08:36.845Z,1013.20
2022-11-05T11:09:36.804Z,1013.18
2022-11-05T11:10:36.806Z,1013.22
2022-11-05T11:11:36.783Z,1013.19
2022-11-05T11:12:40.678Z,1013.21
2022-11-05T11:13:36.762Z,1013.19
2022-11-05T11:14:36.750Z,1013.15
2022-11-05T11:15:36.748Z,1013.07
2022-11-05T11:16:36.728Z,1013.13
2022-11-05T11:17:36.731Z,1013.10
2022-11-05T11:18:40.043Z,1013.09
2022-11-05T11:19:36.700Z,1013.03
2022-11-05T11:20:36.685Z,1013.03
2022-11-05T11:21:36.683Z,1013.03
2022-11-05T11:22:36.691Z,1012.97
2022-11-05T11:23:36.664Z,1012.93
2022-11-05T11:24:36.664Z,1012.93
2022-11-05T11:25:36.624Z,1012.96
2022-11-05T11:26:36.612Z,1012.94
2022-11-05T11:27:36.628Z,1012.96
2022-11-05T11:28:36.593Z,1012.95
2022-11-05T11:29:36.579Z,1012.92
2022-11-05T11:30:36.571Z,1012.92
2022-11-05T11:31:36.566Z,1012.93
2022-11-05T11:32:36.547Z,1012.98
2022-11-05T11:33:36.557Z,1012.95
2022-11-05T11:34:36.526Z,1012.95
2022-11-05T11:35:36.523Z,1012.99
2022-11-05T11:36:36.509Z,1012.93
2022-11-05T11:37:36.520Z,1012.95
2022-11-05T11:38:36.500Z,1012.97
2022-11-05T11:39:36.469Z,1012.92
2022-11-05T11:40:36.587Z,1012.90
2022-11-05T11:41:36.457Z,1012.92
2022-11-05T11:42:36.439Z,1012.94
2022-11-05T11:43:36.443Z,1012.94
2022-11-05T11:44:36.420Z,1012.95
2022-11-05T11:45:36.400Z,1012.97
2022-11-05T11:46:36.398Z,1012.96
2022-11-05T11:47:36.383Z,1012.97
2022-11-05T11:48:36.392Z,1012.97
2022-11-05T11:49:36.358Z,1012.98
2022-11-05T11:50:36.347Z,1012.99
2022-11-05T11:51:36.349Z,1013.00
2022-11-05T11:52:36.333Z,1013.02
2022-11-05T11:53:36.339Z,1012.98
2022-11-05T11:54:36.308Z,1013.03
2022-11-05T11:55:36.297Z,1013.06
2022-11-05T11:56:36.299Z,1013.04
2022-11-05T11:57:36.265Z,1013.00
2022-11-05T11:58:36.269Z,1013.02
2022-11-05T12:00:06.628Z,1012.99
2022-11-05T12:00:37.241Z,1013.01
2022-11-05T12:01:36.294Z,1012.98
2022-11-05T12:02:36.275Z,1012.95
2022-11-05T12:03:36.221Z,1012.95
2022-11-05T12:04:36.197Z,1013.03
2022-11-05T12:05:36.177Z,1013.00